createdAt,value
2022-12-28T00:02:24.732Z,-0.30
2022-12-28T00:07:26.470Z,-0.30
2022-12-28T00:12:29.428Z,-0.20
2022-12-28T00:17:31.177Z,-0.30
2022-12-28T00:22:32.907Z,-0.40
2022-12-28T00:27:34.704Z,-0.40
2022-12-28T00:32:36.476Z,-0.40
2022-12-28T00:37:38.226Z,-0.40
2022-12-28T00:42:40.010Z,-0.40
2022-12-28T00:47:41.734Z,-0.40
2022-12-28T00:52:43.450Z,-0.40
2022-12-28T00:57:45.228Z,-0.40
2022-12-28T01:02:47.135Z,-0.40
2022-12-28T01:07:49.802Z,-0.40
2022-12-28T01:12:53.435Z,-0.40
2022-12-28T01:17:55.199Z,-0.40
2022-12-28T01:22:56.969Z,-0.40
2022-12-28T01:27:58.693Z,-0.30
2022-12-28T01:33:00.472Z,-0.40
2022-12-28T01:38:02.210Z,-0.40
2022-12-28T01:43:12.031Z,-0.40
2022-12-28T01:48:22.889Z,-0.40
2022-12-28T01:53:24.761Z,-0.60
2022-12-28T01:58:30.631Z,-0.60
2022-12-28T02:03:34.545Z,-0.70
2022-12-28T02:09:01.156Z,-0.60
2022-12-28T02:14:04.865Z,-0.60
2022-12-28T02:19:08.503Z,-0.60
2022-12-28T02:24:38.798Z,-0.70
2022-12-28T02:29:42.678Z,-0.60
2022-12-28T02:34:57.148Z,-0.60
2022-12-28T02:40:04.838Z,-0.60
2022-12-28T02:45:27.676Z,-0.50
2022-12-28T02:50:47.105Z,-0.40
2022-12-28T02:56:10.065Z,-0.30
2022-12-28T03:01:27.365Z,-0.20
2022-12-28T03:07:03.468Z,-0.10
2022-12-28T03:12:14.648Z,0.00
2022-12-28T03:17:39.369Z,0.10
2022-12-28T03:23:02.319Z,0.20
2022-12-28T03:28:26.221Z,0.20
2022-12-28T03:33:28.238Z,0.30
2022-12-28T03:38:43.097Z,0.40
2022-12-28T03:43:51.434Z,0.50
2022-12-28T03:48:53.787Z,0.50
2022-12-28T03:53:55.826Z,0.60
2022-12-28T03:58:58.081Z,0.60
2022-12-28T04:04:09.222Z,0.70
2022-12-28T04:09:11.425Z,0.70
2022-12-28T04:14:16.327Z,0.70
2022-12-28T04:19:19.450Z,0.70
2022-12-28T04:24:22.510Z,0.70
2022-12-28T04:29:24.398Z,0.80
2022-12-28T04:34:35.782Z,0.80
2022-12-28T04:39:55.223Z,0.90
2022-12-28T04:44:58.965Z,0.90
2022-12-28T04:50:00.782Z,0.90
2022-12-28T04:55:02.556Z,0.90
2022-12-28T05:00:04.934Z,0.80
2022-12-28T05:05:07.315Z,0.90
2022-12-28T05:10:09.214Z,0.90
2022-12-28T05:15:11.288Z,0.90
2022-12-28T05:20:13.102Z,0.90
2022-12-28T05:25:14.839Z,1.00
2022-12-28T05:30:16.642Z,1.00
2022-12-28T05:35:18.433Z,0.90
2022-12-28T05:40:20.173Z,0.90
2022-12-28T05:45:22.030Z,0.80
2022-12-28T05:50:23.774Z,0.80
2022-12-28T05:55:25.695Z,0.70
2022-12-28T06:00:27.464Z,0.60
2022-12-28T06:05:29.306Z,0.70
2022-12-28T06:10:31.165Z,0.60
2022-12-28T06:15:32.914Z,0.60
2022-12-28T06:20:34.631Z,0.70
2022-12-28T06:25:38.102Z,0.70
2022-12-28T06:30:39.913Z,0.70
2022-12-28T06:35:41.901Z,0.70
2022-12-28T06:46:06.582Z,0.70
2022-12-28T06:51:16.017Z,0.70
2022-12-28T06:56:29.586Z,0.70
2022-12-28T07:01:34.723Z,0.70
2022-12-28T07:06:42.423Z,0.80
2022-12-28T07:11:44.748Z,0.80
2022-12-28T07:16:47.894Z,0.80
2022-12-28T07:21:50.054Z,0.80
2022-12-28T07:26:51.851Z,0.90
2022-12-28T07:31:53.592Z,0.90
2022-12-28T07:36:55.398Z,1.00
2022-12-28T07:41:57.162Z,1.00
2022-12-28T07:46:58.909Z,1.00
2022-12-28T07:52:00.720Z,1.10
2022-12-28T07:57:02.645Z,1.10
2022-12-28T08:02:04.680Z,1.20
2022-12-28T08:07:06.718Z,1.20
2022-12-28T08:12:08.487Z,1.10
2022-12-28T08:17:11.469Z,1.20
2022-12-28T08:22:16.673Z,1.20
2022-12-28T08:27:18.408Z,1.20
2022-12-28T08:32:20.133Z,1.30
2022-12-28T08:37:21.876Z,1.30
2022-12-28T08:42:23.647Z,1.30
2022-12-28T08:47:25.374Z,1.40
2022-12-28T08:52:27.628Z,1.40
2022-12-28T08:57:29.415Z,1.50
2022-12-28T09:02:31.359Z,1.60
2022-12-28T09:07:33.246Z,1.60
2022-12-28T09:12:35.001Z,1.70
2022-12-28T09:17:36.830Z,1.70
2022-12-28T09:22:38.695Z,1.90
2022-12-28T09:27:40.631Z,2.00
2022-12-28T09:32:42.360Z,2.10
2022-12-28T09:37:45.048Z,2.20
2022-12-28T09:42:46.784Z,2.30
2022-12-28T09:47:52.230Z,2.50
2022-12-28T09:53:05.732Z,2.60
2022-12-28T09:58:14.756Z,2.80
2022-12-28T10:03:24.591Z,2.90
2022-12-28T10:08:28.621Z,3.10
2022-12-28T10:13:55.844Z,3.20
2022-12-28T10:18:58.938Z,3.30
2022-12-28T10:24:30.191Z,3.40
2022-12-28T10:29:25.575Z,3.50
2022-12-28T10:34:33.467Z,3.60
2022-12-28T10:39:36.867Z,3.70
2022-12-28T10:44:40.971Z,3.80
2022-12-28T10:50:10.169Z,3.70
2022-12-28T10:55:28.531Z,3.80
2022-12-28T11:00:30.322Z,3.80
2022-12-28T11:05:32.075Z,3.80
2022-12-28T11:10:33.852Z,3.90
2022-12-28T11:15:35.698Z,4.00
2022-12-28T11:20:41.762Z,4.10
2022-12-28T11:25:43.589Z,4.20
2022-12-28T11:30:46.959Z,4.30
2022-12-28T11:35:56.036Z,4.30
2022-12-28T11:41:00.771Z,4.40
2022-12-28T11:46:04.633Z,4.50
2022-12-28T11:51:21.711Z,4.50
2022-12-28T11:56:36.402Z,4.50
2022-12-28T12:01:41.045Z,4.50
2022-12-28T12:06:47.942Z,4.50
2022-12-28T12:11:50.656Z,4.60
2022-12-28T12:17:03.064Z,4.70
2022-12-28T12:22:25.853Z,4.90
2022-12-28T12:27:40.446Z,4.90
2022-12-28T12:32:51.448Z,4.90
2022-12-28T12:38:00.349Z,4.90
2022-12-28T12:43:35.945Z,5.00
2022-12-28T12:48:55.889Z,5.00
2022-12-28T12:54:21.140Z,5.10
2022-12-28T12:59:47.066Z,5.20
2022-12-28T13:04:49.269Z,5.20
2022-12-28T13:09:53.508Z,5.10
2022-12-28T13:15:00.657Z,5.10
2022-12-28T13:20:10.875Z,5.00
2022-12-28T13:25:31.129Z,4.90
2022-12-28T13:30:32.964Z,4.80
2022-12-28T13:35:34.982Z,4.70
2022-12-28T13:40:38.861Z,4.50
2022-12-28T13:45:41.538Z,4.40
2022-12-28T13:50:46.146Z,4.40
2022-12-28T13:55:52.824Z,4.40
2022-12-28T14:00:57.414Z,4.40
2022-12-28T14:06:00.893Z,4.40
2022-12-28T14:11:03.786Z,4.50
2022-12-28T14:16:06.523Z,4.50
2022-12-28T14:21:08.551Z,4.50
2022-12-28T14:26:20.454Z,4.50
2022-12-28T14:31:26.879Z,4.50
2022-12-28T14:36:36.880Z,4.50
2022-12-28T14:41:41.003Z,4.50
2022-12-28T14:46:42.968Z,4.50
2022-12-28T14:51:44.829Z,4.40
2022-12-28T14:56:55.122Z,4.30
2022-12-28T15:01:57.098Z,4.10
2022-12-28T15:06:59.170Z,4.00
2022-12-28T15:12:13.324Z,3.90
2022-12-28T15:17:16.508Z,3.80
2022-12-28T15:22:18.797Z,3.70
2022-12-28T15:27:20.619Z,3.60
2022-12-28T15:32:22.398Z,3.40
2022-12-28T15:37:24.196Z,3.20
2022-12-28T15:42:25.981Z,3.00
2022-12-28T15:47:27.778Z,2.90
2022-12-28T15:52:31.286Z,2.80
2022-12-28T15:57:33.060Z,2.70
2022-12-28T16:02:35.201Z,2.70
2022-12-28T16:07:37.133Z,2.70
2022-12-28T16:12:38.915Z,2.70
2022-12-28T16:17:51.120Z,2.60
2022-12-28T16:22:56.969Z,2.70
2022-12-28T16:27:58.762Z,2.60
2022-12-28T16:33:00.563Z,2.60
2022-12-28T16:38:02.409Z,2.60
2022-12-28T16:43:05.473Z,2.50
2022-12-28T16:48:09.883Z,2.40
2022-12-28T16:53:11.701Z,2.40
2022-12-28T16:58:13.450Z,2.30
2022-12-28T17:03:15.230Z,2.30
2022-12-28T17:08:17.623Z,2.30
2022-12-28T17:13:19.402Z,2.30
2022-12-28T17:18:21.162Z,2.30
2022-12-28T17:23:23.553Z,2.30
2022-12-28T17:28:25.372Z,2.30
2022-12-28T17:33:27.076Z,2.30
2022-12-28T17:38:29.233Z,2.20
2022-12-28T17:43:31.037Z,2.20
2022-12-28T17:48:32.831Z,2.20
2022-12-28T17:53:36.005Z,2.10
2022-12-28T17:58:38.167Z,2.10
2022-12-28T18:03:40.453Z,2.00
2022-12-28T18:08:42.337Z,2.00
2022-12-28T18:13:46.947Z,2.00
2022-12-28T18:18:49.828Z,2.00
2022-12-28T18:23:52.909Z,1.90
2022-12-28T18:28:55.962Z,1.90
2022-12-28T18:33:58.610Z,2.00
2022-12-28T18:39:00.354Z,2.00
2022-12-28T18:44:03.247Z,2.00
2022-12-28T18:49:05.104Z,2.00
2022-12-28T18:54:06.842Z,2.00
2022-12-28T18:59:08.706Z,2.00
2022-12-28T19:04:11.400Z,2.00
2022-12-28T19:09:13.535Z,2.00
2022-12-28T19:14:16.023Z,2.00
2022-12-28T19:19:18.014Z,2.00
2022-12-28T19:24:19.898Z,2.00
2022-12-28T19:29:21.614Z,2.00
2022-12-28T19:34:23.600Z,2.00
2022-12-28T19:39:25.372Z,1.90
2022-12-28T19:44:27.082Z,2.00
2022-12-28T19:49:28.807Z,2.00
2022-12-28T19:54:30.579Z,2.00
2022-12-28T19:59:32.300Z,2.20
2022-12-28T20:04:34.515Z,2.20
2022-12-28T20:09:38.362Z,2.20
2022-12-28T20:14:40.102Z,2.20
2022-12-28T20:19:45.345Z,2.10
2022-12-28T20:24:47.381Z,1.90
2022-12-28T20:29:49.129Z,1.80
2022-12-28T20:34:50.862Z,1.80
2022-12-28T20:39:53.833Z,1.70
2022-12-28T20:44:58.610Z,1.60
2022-12-28T20:50:00.420Z,1.60
2022-12-28T20:55:02.167Z,1.60
2022-12-28T21:00:04.313Z,1.60
2022-12-28T21:05:07.058Z,1.60
2022-12-28T21:10:09.396Z,1.70
2022-12-28T21:15:11.311Z,1.70
2022-12-28T21:20:13.042Z,1.70
2022-12-28T21:25:14.947Z,1.80
2022-12-28T21:30:17.233Z,1.70
2022-12-28T21:35:20.125Z,1.60
2022-12-28T21:40:21.909Z,1.60
2022-12-28T21:45:23.758Z,1.60
2022-12-28T21:50:25.612Z,1.60
2022-12-28T21:55:42.276Z,1.50
2022-12-28T22:01:02.577Z,1.50
2022-12-28T22:06:08.215Z,1.50
2022-12-28T22:11:31.757Z,1.50
2022-12-28T22:16:35.195Z,1.50
2022-12-28T22:21:37.024Z,1.40
2022-12-28T22:26:38.850Z,1.50
2022-12-28T22:31:41.168Z,1.40
2022-12-28T22:36:43.264Z,1.40
2022-12-28T22:41:45.058Z,1.30
2022-12-28T22:46:46.833Z,1.30
2022-12-28T22:51:48.573Z,1.30
2022-12-28T22:56:50.414Z,1.20
2022-12-28T23:01:53.546Z,1.20
2022-12-28T23:07:01.547Z,1.20
2022-12-28T23:12:05.436Z,1.30
2022-12-28T23:17:09.401Z,1.20
2022-12-28T23:22:36.355Z,1.20
2022-12-28T23:27:41.576Z,1.10
2022-12-28T23:32:44.987Z,1.20
2022-12-28T23:37:47.092Z,1.10
2022-12-28T23:42:49.626Z,1.10
2022-12-28T23:47:53.399Z,1.00
2022-12-28T23:52:55.136Z,1.10
2022-12-28T23:57:56.879Z,1.10
